sensor_id;sensor_type;location;lat;lon;timestamp;pressure;altitude;pressure_sealevel;temperature;humidity
60437;BME280;46289;51.992;4.498;2023-12-29T00:01:52;100668.69;;;8.92;100.00
60437;BME280;46289;51.992;4.498;2023-12-29T00:03:57;100646.63;;;8.97;100.00
60437;BME280;46289;51.992;4.498;2023-12-29T00:06:02;100665.56;;;9.06;100.00
60437;BME280;46289;51.992;4.498;2023-12-29T00:08:08;100648.81;;;9.10;100.00
60437;BME280;46289;51.992;4.498;2023-12-29T00:10:16;100634.69;;;9.14;100.00
60437;BME280;46289;51.992;4.498;2023-12-29T00:12:24;100645.91;;;9.17;100.00
60437;BME280;46289;51.992;4.498;2023-12-29T00:14:29;100646.72;;;9.19;100.00
60437;BME280;46289;51.992;4.498;2023-12-29T00:16:34;100643.13;;;9.22;100.00
60437;BME280;46289;51.992;4.498;2023-12-29T00:18:39;100644.53;;;9.31;100.00
60437;BME280;46289;51.992;4.498;2023-12-29T00:20:48;100651.59;;;9.29;100.00
60437;BME280;46289;51.992;4.498;2023-12-29T00:23:08;100637.28;;;9.37;100.00
60437;BME280;46289;51.992;4.498;2023-12-29T00:25:13;100637.16;;;9.40;100.00
60437;BME280;46289;51.992;4.498;2023-12-29T00:27:18;100635.50;;;9.38;100.00
60437;BME280;46289;51.992;4.498;2023-12-29T00:29:24;100622.41;;;9.38;100.00
60437;BME280;46289;51.992;4.498;2023-12-29T00:31:33;100644.28;;;9.37;100.00
60437;BME280;46289;51.992;4.498;2023-12-29T00:33:38;100627.66;;;9.38;100.00
60437;BME280;46289;51.992;4.498;2023-12-29T00:35:44;100625.16;;;9.35;100.00
60437;BME280;46289;51.992;4.498;2023-12-29T00:37:52;100630.28;;;9.38;100.00
60437;BME280;46289;51.992;4.498;2023-12-29T00:40:00;100643.38;;;9.38;100.00
60437;BME280;46289;51.992;4.498;2023-12-29T00:42:05;100636.41;;;9.37;100.00
60437;BME280;46289;51.992;4.498;2023-12-29T00:44:10;100636.38;;;9.38;100.00
60437;BME280;46289;51.992;4.498;2023-12-29T00:46:16;100650.56;;;9.33;100.00
60437;BME280;46289;51.992;4.498;2023-12-29T00:48:21;100640.00;;;9.34;100.00
60437;BME280;46289;51.992;4.498;2023-12-29T00:50:26;100645.31;;;9.33;100.00
60437;BME280;46289;51.992;4.498;2023-12-29T00:52:32;100634.97;;;9.30;100.00
60437;BME280;46289;51.992;4.498;2023-12-29T00:54:41;100638.47;;;9.29;100.00
60437;BME280;46289;51.992;4.498;2023-12-29T00:56:48;100651.72;;;9.26;100.00
60437;BME280;46289;51.992;4.498;2023-12-29T00:58:53;100639.53;;;9.25;100.00
60437;BME280;46289;51.992;4.498;2023-12-29T01:00:58;100634.28;;;9.25;100.00
60437;BME280;46289;51.992;4.498;2023-12-29T01:03:04;100629.03;;;9.25;100.00
60437;BME280;46289;51.992;4.498;2023-12-29T01:05:09;100628.09;;;9.26;100.00
60437;BME280;46289;51.992;4.498;2023-12-29T01:07:14;100639.31;;;9.29;100.00
60437;BME280;46289;51.992;4.498;2023-12-29T01:09:19;100620.94;;;9.31;100.00
60437;BME280;46289;51.992;4.498;2023-12-29T01:11:27;100640.19;;;9.30;100.00
60437;BME280;46289;51.992;4.498;2023-12-29T01:13:32;100615.81;;;9.28;100.00
60437;BME280;46289;51.992;4.498;2023-12-29T01:15:37;100621.91;;;9.28;100.00
60437;BME280;46289;51.992;4.498;2023-12-29T01:17:46;100608.06;;;9.25;100.00
60437;BME280;46289;51.992;4.498;2023-12-29T01:19:49;100612.38;;;9.26;100.00
60437;BME280;46289;51.992;4.498;2023-12-29T01:21:54;100629.81;;;9.27;100.00
60437;BME280;46289;51.992;4.498;2023-12-29T01:23:59;100620.13;;;9.29;100.00
60437;BME280;46289;51.992;4.498;2023-12-29T01:26:06;100614.88;;;9.29;100.00
60437;BME280;46289;51.992;4.498;2023-12-29T01:28:17;100640.25;;;9.28;100.00
60437;BME280;46289;51.992;4.498;2023-12-29T01:30:23;100637.50;;;9.31;100.00
60437;BME280;46289;51.992;4.498;2023-12-29T01:32:28;100622.63;;;9.32;100.00
60437;BME280;46289;51.992;4.498;2023-12-29T01:34:33;100633.19;;;9.30;100.00
60437;BME280;46289;51.992;4.498;2023-12-29T01:36:39;100630.56;;;9.30;100.00
60437;BME280;46289;51.992;4.498;2023-12-29T01:38:44;100632.44;;;9.27;100.00
60437;BME280;46289;51.992;4.498;2023-12-29T01:40:49;100620.19;;;9.27;100.00
60437;BME280;46289;51.992;4.498;2023-12-29T01:42:52;100605.34;;;9.26;100.00
60437;BME280;46289;51.992;4.498;2023-12-29T01:45:00;100620.41;;;9.21;100.00
60437;BME280;46289;51.992;4.498;2023-12-29T01:47:14;100622.19;;;9.20;100.00
60437;BME280;46289;51.992;4.498;2023-12-29T01:49:20;100622.44;;;9.14;100.00
60437;BME280;46289;51.992;4.498;2023-12-29T01:51:27;100630.19;;;9.17;100.00
60437;BME280;46289;51.992;4.498;2023-12-29T01:53:40;100632.91;;;9.14;100.00
60437;BME280;46289;51.992;4.498;2023-12-29T01:55:49;100636.38;;;9.15;100.00
60437;BME280;46289;51.992;4.498;2023-12-29T01:57:57;100631.09;;;9.16;100.00
60437;BME280;46289;51.992;4.498;2023-12-29T02:00:07;100651.19;;;9.16;100.00
60437;BME280;46289;51.992;4.498;2023-12-29T02:02:12;100639.84;;;9.15;100.00
60437;BME280;46289;51.992;4.498;2023-12-29T02:04:18;100650.41;;;9.14;100.00
60437;BME280;46289;51.992;4.498;2023-12-29T02:06:22;100646.91;;;9.13;100.00
60437;BME280;46289;51.992;4.498;2023-12-29T02:08:27;100649.53;;;9.13;100.00
60437;BME280;46289;51.992;4.498;2023-12-29T02:10:33;100650.34;;;9.15;100.00
60437;BME280;46289;51.992;4.498;2023-12-29T02:12:38;100653.88;;;9.14;100.00
60437;BME280;46289;51.992;4.498;2023-12-29T02:14:43;100664.50;;;9.11;100.00
60437;BME280;46289;51.992;4.498;2023-12-29T02:16:58;100662.03;;;9.07;100.00
60437;BME280;46289;51.992;4.498;2023-12-29T02:19:15;100664.66;;;9.07;100.00
60437;BME280;46289;51.992;4.498;2023-12-29T02:21:23;100672.56;;;9.05;100.00
60437;BME280;46289;51.992;4.498;2023-12-29T02:23:29;100678.78;;;9.02;100.00
60437;BME280;46289;51.992;4.498;2023-12-29T02:25:37;100685.66;;;9.05;100.00
60437;BME280;46289;51.992;4.498;2023-12-29T02:27:49;100668.97;;;9.08;100.00
60437;BME280;46289;51.992;4.498;2023-12-29T02:30:06;100668.97;;;9.08;100.00
60437;BME280;46289;51.992;4.498;2023-12-29T02:32:14;100660.25;;;9.07;100.00
60437;BME280;46289;51.992;4.498;2023-12-29T02:34:25;100664.94;;;9.22;100.00
60437;BME280;46289;51.992;4.498;2023-12-29T02:36:33;100656.94;;;9.26;100.00
60437;BME280;46289;51.992;4.498;2023-12-29T02:38:45;100658.66;;;9.27;100.00
60437;BME280;46289;51.992;4.498;2023-12-29T02:40:54;100657.00;;;9.24;100.00
60437;BME280;46289;51.992;4.498;2023-12-29T02:42:59;100658.66;;;9.27;100.00
60437;BME280;46289;51.992;4.498;2023-12-29T02:45:05;100671.97;;;9.22;100.00
60437;BME280;46289;51.992;4.498;2023-12-29T02:47:14;100678.28;;;9.16;100.00
60437;BME280;46289;51.992;4.498;2023-12-29T02:49:24;100672.16;;;9.16;100.00
60437;BME280;46289;51.992;4.498;2023-12-29T02:51:30;100675.66;;;9.16;100.00
60437;BME280;46289;51.992;4.498;2023-12-29T02:53:36;100674.78;;;9.16;100.00
60437;BME280;46289;51.992;4.498;2023-12-29T02:55:43;100659.00;;;9.17;100.00
60437;BME280;46289;51.992;4.498;2023-12-29T02:57:51;100680.66;;;9.22;100.00
60437;BME280;46289;51.992;4.498;2023-12-29T02:59:57;100676.22;;;9.25;100.00
60437;BME280;46289;51.992;4.498;2023-12-29T03:02:02;100668.16;;;9.29;100.00
60437;BME280;46289;51.992;4.498;2023-12-29T03:04:07;100662.88;;;9.31;100.00
60437;BME280;46289;51.992;4.498;2023-12-29T03:06:09;100644.34;;;9.35;100.00
60437;BME280;46289;51.992;4.498;2023-12-29T03:08:14;100660.13;;;9.34;100.00
60437;BME280;46289;51.992;4.498;2023-12-29T03:10:19;100646.84;;;9.38;100.00
60437;BME280;46289;51.992;4.498;2023-12-29T03:12:24;100642.34;;;9.42;100.00
60437;BME280;46289;51.992;4.498;2023-12-29T03:14:29;100646.56;;;9.46;100.00
60437;BME280;46289;51.992;4.498;2023-12-29T03:16:34;100638.56;;;9.49;100.00
60437;BME280;46289;51.992;4.498;2023-12-29T03:18:42;100639.28;;;9.53;100.00
60437;BME280;46289;51.992;4.498;2023-12-29T03:20:49;100628.69;;;9.56;100.00
60437;BME280;46289;51.992;4.498;2023-12-29T03:22:54;100619.59;;;9.64;100.00
60437;BME280;46289;51.992;4.498;2023-12-29T03:25:00;100623.91;;;9.65;100.00
60437;BME280;46289;51.992;4.498;2023-12-29T03:27:05;100630.22;;;9.61;100.00
60437;BME280;46289;51.992;4.498;2023-12-29T03:29:10;100638.75;;;9.66;100.00
60437;BME280;46289;51.992;4.498;2023-12-29T03:31:19;100636.91;;;9.68;100.00
60437;BME280;46289;51.992;4.498;2023-12-29T03:33:24;100633.63;;;9.63;100.00
60437;BME280;46289;51.992;4.498;2023-12-29T03:35:28;100637.97;;;9.64;100.00
60437;BME280;46289;51.992;4.498;2023-12-29T03:37:33;100639.00;;;9.60;100.00
60437;BME280;46289;51.992;4.498;2023-12-29T03:39:38;100637.97;;;9.64;100.00
60437;BME280;46289;51.992;4.498;2023-12-29T03:41:44;100630.75;;;9.70;100.00
60437;BME280;46289;51.992;4.498;2023-12-29T03:43:46;100632.59;;;9.67;100.00
60437;BME280;46289;51.992;4.498;2023-12-29T03:45:51;100644.91;;;9.65;100.00
60437;BME280;46289;51.992;4.498;2023-12-29T03:47:59;100627.47;;;9.64;100.00
60437;BME280;46289;51.992;4.498;2023-12-29T03:50:07;100625.75;;;9.63;100.00
60437;BME280;46289;51.992;4.498;2023-12-29T03:52:12;100610.09;;;9.62;100.00
60437;BME280;46289;51.992;4.498;2023-12-29T03:54:17;100618.81;;;9.62;100.00
60437;BME280;46289;51.992;4.498;2023-12-29T03:56:23;100621.38;;;9.64;100.00
60437;BME280;46289;51.992;4.498;2023-12-29T03:58:28;100623.78;;;9.68;100.00
60437;BME280;46289;51.992;4.498;2023-12-29T04:00:35;100634.25;;;9.70;100.00
60437;BME280;46289;51.992;4.498;2023-12-29T04:02:44;100631.34;;;9.76;100.00
60437;BME280;46289;51.992;4.498;2023-12-29T04:04:52;100625.94;;;9.81;100.00
60437;BME280;46289;51.992;4.498;2023-12-29T04:06:57;100629.53;;;9.78;100.00
60437;BME280;46289;51.992;4.498;2023-12-29T04:09:00;100621.72;;;9.77;100.00
60437;BME280;46289;51.992;4.498;2023-12-29T04:11:06;100626.97;;;9.77;100.00
60437;BME280;46289;51.992;4.498;2023-12-29T04:13:13;100635.75;;;9.76;100.00
60437;BME280;46289;51.992;4.498;2023-12-29T04:15:15;100626.19;;;9.75;100.00
60437;BME280;46289;51.992;4.498;2023-12-29T04:17:20;100626.19;;;9.75;100.00
60437;BME280;46289;51.992;4.498;2023-12-29T04:19:25;100630.38;;;9.79;100.00
60437;BME280;46289;51.992;4.498;2023-12-29T04:21:33;100637.44;;;9.77;100.00
60437;BME280;46289;51.992;4.498;2023-12-29T04:23:37;100626.31;;;9.72;100.00
60437;BME280;46289;51.992;4.498;2023-12-29T04:25:43;100632.47;;;9.71;100.00
60437;BME280;46289;51.992;4.498;2023-12-29T04:27:48;100622.09;;;9.67;100.00
60437;BME280;46289;51.992;4.498;2023-12-29T04:29:56;100633.75;;;9.60;100.00
60437;BME280;46289;51.992;4.498;2023-12-29T04:32:03;100633.56;;;9.65;100.00
60437;BME280;46289;51.992;4.498;2023-12-29T04:34:09;100636.19;;;9.65;100.00
60437;BME280;46289;51.992;4.498;2023-12-29T04:36:14;100613.50;;;9.64;100.00
60437;BME280;46289;51.992;4.498;2023-12-29T04:38:22;100619.59;;;9.64;100.00
60437;BME280;46289;51.992;4.498;2023-12-29T04:40:28;100616.19;;;9.62;100.00
60437;BME280;46289;51.992;4.498;2023-12-29T04:42:33;100607.50;;;9.60;100.00
60437;BME280;46289;51.992;4.498;2023-12-29T04:44:36;100604.03;;;9.60;100.00
60437;BME280;46289;51.992;4.498;2023-12-29T04:46:43;100617.03;;;9.63;100.00
60437;BME280;46289;51.992;4.498;2023-12-29T04:48:48;100604.00;;;9.61;100.00
60437;BME280;46289;51.992;4.498;2023-12-29T04:50:53;100615.38;;;9.60;100.00
60437;BME280;46289;51.992;4.498;2023-12-29T04:52:58;100612.63;;;9.63;100.00
60437;BME280;46289;51.992;4.498;2023-12-29T04:55:04;100612.75;;;9.60;100.00
60437;BME280;46289;51.992;4.498;2023-12-29T04:57:09;100618.94;;;9.59;100.00
60437;BME280;46289;51.992;4.498;2023-12-29T04:59:14;100609.41;;;9.57;100.00
60437;BME280;46289;51.992;4.498;2023-12-29T05:01:19;100618.13;;;9.57;100.00
60437;BME280;46289;51.992;4.498;2023-12-29T05:03:21;100615.25;;;9.63;100.00
60437;BME280;46289;51.992;4.498;2023-12-29T05:05:29;100630.13;;;9.63;100.00
60437;BME280;46289;51.992;4.498;2023-12-29T05:07:35;100632.72;;;9.64;100.00
60437;BME280;46289;51.992;4.498;2023-12-29T05:09:41;100624.59;;;9.71;100.00
60437;BME280;46289;51.992;4.498;2023-12-29T05:11:49;100631.47;;;9.73;100.00
60437;BME280;46289;51.992;4.498;2023-12-29T05:13:55;100615.88;;;9.70;100.00
60437;BME280;46289;51.992;4.498;2023-12-29T05:16:04;100625.66;;;9.66;100.00
60437;BME280;46289;51.992;4.498;2023-12-29T05:18:09;100620.50;;;9.63;100.00
60437;BME280;46289;51.992;4.498;2023-12-29T05:20:15;100610.00;;;9.63;100.00
60437;BME280;46289;51.992;4.498;2023-12-29T05:22:20;100604.00;;;9.61;100.00
60437;BME280;46289;51.992;4.498;2023-12-29T05:24:22;100602.13;;;9.63;100.00
60437;BME280;46289;51.992;4.498;2023-12-29T05:26:28;100596.84;;;9.65;100.00
60437;BME280;46289;51.992;4.498;2023-12-29T05:28:35;100604.84;;;9.62;100.00
60437;BME280;46289;51.992;4.498;2023-12-29T05:30:40;100608.19;;;9.65;100.00
60437;BME280;46289;51.992;4.498;2023-12-29T05:32:46;100610.88;;;9.64;100.00
60437;BME280;46289;51.992;4.498;2023-12-29T05:34:51;100620.41;;;9.66;100.00
60437;BME280;46289;51.992;4.498;2023-12-29T05:37:07;100624.09;;;9.61;100.00
60437;BME280;46289;51.992;4.498;2023-12-29T05:39:13;100608.31;;;9.62;100.00
60437;BME280;46289;51.992;4.498;2023-12-29T05:41:20;100609.28;;;9.60;100.00
60437;BME280;46289;51.992;4.498;2023-12-29T05:43:25;100618.75;;;9.64;100.00
60437;BME280;46289;51.992;4.498;2023-12-29T05:45:33;100612.63;;;9.63;100.00
60437;BME280;46289;51.992;4.498;2023-12-29T05:47:38;100606.47;;;9.64;100.00
60437;BME280;46289;51.992;4.498;2023-12-29T05:49:41;100605.69;;;9.62;100.00
60437;BME280;46289;51.992;4.498;2023-12-29T05:51:47;100597.94;;;9.59;100.00
60437;BME280;46289;51.992;4.498;2023-12-29T05:53:52;100610.38;;;9.54;100.00
60437;BME280;46289;51.992;4.498;2023-12-29T05:55:57;100599.75;;;9.57;100.00
60437;BME280;46289;51.992;4.498;2023-12-29T05:58:03;100599.84;;;9.56;100.00
60437;BME280;46289;51.992;4.498;2023-12-29T06:00:10;100594.78;;;9.51;100.00
60437;BME280;46289;51.992;4.498;2023-12-29T06:02:21;100598.28;;;9.50;100.00
60437;BME280;46289;51.992;4.498;2023-12-29T06:04:26;100594.91;;;9.48;100.00
60437;BME280;46289;51.992;4.498;2023-12-29T06:06:31;100582.56;;;9.50;100.00
60437;BME280;46289;51.992;4.498;2023-12-29T06:08:36;100593.72;;;9.55;100.00
60437;BME280;46289;51.992;4.498;2023-12-29T06:10:42;100591.19;;;9.54;100.00
60437;BME280;46289;51.992;4.498;2023-12-29T06:12:48;100603.19;;;9.59;100.00
60437;BME280;46289;51.992;4.498;2023-12-29T06:14:50;100597.81;;;9.62;100.00
60437;BME280;46289;51.992;4.498;2023-12-29T06:16:57;100591.84;;;9.59;100.00
60437;BME280;46289;51.992;4.498;2023-12-29T06:19:05;100586.38;;;9.63;100.00
60437;BME280;46289;51.992;4.498;2023-12-29T06:21:12;100585.38;;;9.67;100.00
60437;BME280;46289;51.992;4.498;2023-12-29T06:23:18;100585.50;;;9.64;100.00
60437;BME280;46289;51.992;4.498;2023-12-29T06:25:25;100585.50;;;9.64;100.00
60437;BME280;46289;51.992;4.498;2023-12-29T06:27:30;100582.88;;;9.64;100.00
60437;BME280;46289;51.992;4.498;2023-12-29T06:29:41;100583.84;;;9.62;100.00
60437;BME280;46289;51.992;4.498;2023-12-29T06:31:47;100577.53;;;9.66;100.00
60437;BME280;46289;51.992;4.498;2023-12-29T06:33:53;100573.47;;;9.59;100.00
60437;BME280;46289;51.992;4.498;2023-12-29T06:36:03;100580.47;;;9.58;100.00
60437;BME280;46289;51.992;4.498;2023-12-29T06:38:10;100584.88;;;9.58;100.00
60437;BME280;46289;51.992;4.498;2023-12-29T06:40:20;100590.97;;;9.58;100.00
60437;BME280;46289;51.992;4.498;2023-12-29T06:42:29;100592.69;;;9.59;100.00
60437;BME280;46289;51.992;4.498;2023-12-29T06:44:32;100594.53;;;9.57;100.00
60437;BME280;46289;51.992;4.498;2023-12-29T06:46:39;100588.47;;;9.55;100.00
60437;BME280;46289;51.992;4.498;2023-12-29T06:48:44;100586.91;;;9.51;100.00
60437;BME280;46289;51.992;4.498;2023-12-29T06:50:51;100592.16;;;9.51;100.00
60437;BME280;46289;51.992;4.498;2023-12-29T06:53:02;100587.75;;;9.52;100.00
60437;BME280;46289;51.992;4.498;2023-12-29T06:55:09;100589.66;;;9.48;100.00
60437;BME280;46289;51.992;4.498;2023-12-29T06:57:18;100589.75;;;9.45;100.00
60437;BME280;46289;51.992;4.498;2023-12-29T06:59:25;100588.09;;;9.42;100.00
60437;BME280;46289;51.992;4.498;2023-12-29T07:01:32;100579.47;;;9.40;100.00
60437;BME280;46289;51.992;4.498;2023-12-29T07:03:38;100597.81;;;9.40;100.00
60437;BME280;46289;51.992;4.498;2023-12-29T07:05:50;100601.03;;;9.47;100.00
60437;BME280;46289;51.992;4.498;2023-12-29T07:07:55;100594.09;;;9.46;100.00
60437;BME280;46289;51.992;4.498;2023-12-29T07:10:05;100604.34;;;9.52;100.00
60437;BME280;46289;51.992;4.498;2023-12-29T07:12:10;100606.06;;;9.53;100.00
60437;BME280;46289;51.992;4.498;2023-12-29T07:14:20;100595.38;;;9.58;100.00
60437;BME280;46289;51.992;4.498;2023-12-29T07:16:26;100593.59;;;9.58;100.00
60437;BME280;46289;51.992;4.498;2023-12-29T07:18:31;100574.38;;;9.58;100.00
60437;BME280;46289;51.992;4.498;2023-12-29T07:20:37;100594.38;;;9.60;100.00
60437;BME280;46289;51.992;4.498;2023-12-29T07:22:43;100584.69;;;9.62;100.00
60437;BME280;46289;51.992;4.498;2023-12-29T07:24:50;100583.75;;;9.63;100.00
60437;BME280;46289;51.992;4.498;2023-12-29T07:26:55;100587.28;;;9.64;100.00
60437;BME280;46289;51.992;4.498;2023-12-29T07:29:00;100586.16;;;9.70;100.00
60437;BME280;46289;51.992;4.498;2023-12-29T07:31:06;100583.47;;;9.71;100.00
60437;BME280;46289;51.992;4.498;2023-12-29T07:33:13;100584.25;;;9.73;100.00
60437;BME280;46289;51.992;4.498;2023-12-29T07:35:18;100584.34;;;9.72;100.00
60437;BME280;46289;51.992;4.498;2023-12-29T07:37:24;100582.47;;;9.74;100.00
60437;BME280;46289;51.992;4.498;2023-12-29T07:39:29;100589.59;;;9.72;100.00
60437;BME280;46289;51.992;4.498;2023-12-29T07:41:39;100593.19;;;9.69;100.00
60437;BME280;46289;51.992;4.498;2023-12-29T07:43:48;100595.59;;;9.74;100.00
60437;BME280;46289;51.992;4.498;2023-12-29T07:45:54;100600.84;;;9.74;100.00
60437;BME280;46289;51.992;4.498;2023-12-29T07:48:02;100578.03;;;9.76;100.00
60437;BME280;46289;51.992;4.498;2023-12-29T07:50:12;100590.47;;;9.71;100.00
60437;BME280;46289;51.992;4.498;2023-12-29T07:52:21;100603.59;;;9.71;100.00
60437;BME280;46289;51.992;4.498;2023-12-29T07:54:26;100588.38;;;9.79;100.00
60437;BME280;46289;51.992;4.498;2023-12-29T07:56:31;100593.78;;;9.76;100.00
60437;BME280;46289;51.992;4.498;2023-12-29T07:58:39;100589.88;;;9.64;100.00
60437;BME280;46289;51.992;4.498;2023-12-29T08:00:50;100602.25;;;9.60;100.00
60437;BME280;46289;51.992;4.498;2023-12-29T08:02:55;100597.81;;;9.62;100.00
60437;BME280;46289;51.992;4.498;2023-12-29T08:05:02;100603.06;;;9.62;100.00
60437;BME280;46289;51.992;4.498;2023-12-29T08:07:10;100601.59;;;9.55;100.00
60437;BME280;46289;51.992;4.498;2023-12-29T08:09:20;100607.88;;;9.51;100.00
60437;BME280;46289;51.992;4.498;2023-12-29T08:11:25;100609.59;;;9.52;100.00
60437;BME280;46289;51.992;4.498;2023-12-29T08:13:30;100608.69;;;9.53;100.00
60437;BME280;46289;51.992;4.498;2023-12-29T08:15:32;100613.19;;;9.50;100.00
60437;BME280;46289;51.992;4.498;2023-12-29T08:17:41;100629.00;;;9.48;100.00
60437;BME280;46289;51.992;4.498;2023-12-29T08:19:48;100606.91;;;9.54;100.00
60437;BME280;46289;51.992;4.498;2023-12-29T08:21:53;100627.06;;;9.53;100.00
60437;BME280;46289;51.992;4.498;2023-12-29T08:23:58;100626.97;;;9.55;100.00
60437;BME280;46289;51.992;4.498;2023-12-29T08:26:09;100619.06;;;9.56;100.00
60437;BME280;46289;51.992;4.498;2023-12-29T08:28:15;100613.81;;;9.56;100.00
60437;BME280;46289;51.992;4.498;2023-12-29T08:30:23;100615.38;;;9.60;100.00
60437;BME280;46289;51.992;4.498;2023-12-29T08:32:28;100621.44;;;9.62;100.00
60437;BME280;46289;51.992;4.498;2023-12-29T08:34:34;100612.88;;;9.57;100.00
60437;BME280;46289;51.992;4.498;2023-12-29T08:36:43;100612.88;;;9.57;100.00
60437;BME280;46289;51.992;4.498;2023-12-29T08:38:52;100596.88;;;9.63;100.00
60437;BME280;46289;51.992;4.498;2023-12-29T08:40:55;100625.56;;;9.68;100.00
60437;BME280;46289;51.992;4.498;2023-12-29T08:43:00;100625.66;;;9.66;100.00
60437;BME280;46289;51.992;4.498;2023-12-29T08:45:08;100609.81;;;9.68;100.00
60437;BME280;46289;51.992;4.498;2023-12-29T08:47:18;100625.56;;;9.68;100.00
60437;BME280;46289;51.992;4.498;2023-12-29T08:49:24;100628.13;;;9.70;100.00
60437;BME280;46289;51.992;4.498;2023-12-29T08:51:34;100614.03;;;9.72;100.00
60437;BME280;46289;51.992;4.498;2023-12-29T08:53:39;100633.25;;;9.73;100.00
60437;BME280;46289;51.992;4.498;2023-12-29T08:55:47;100625.38;;;9.73;100.00
60437;BME280;46289;51.992;4.498;2023-12-29T08:57:53;100629.72;;;9.74;100.00
60437;BME280;46289;51.992;4.498;2023-12-29T09:00:00;100638.34;;;9.77;100.00
60437;BME280;46289;51.992;4.498;2023-12-29T09:02:06;100636.56;;;9.78;100.00
60437;BME280;46289;51.992;4.498;2023-12-29T09:04:18;100630.25;;;9.82;100.00
60437;BME280;46289;51.992;4.498;2023-12-29T09:06:26;100623.31;;;9.81;100.00
60437;BME280;46289;51.992;4.498;2023-12-29T09:08:36;100636.47;;;9.79;100.00
60437;BME280;46289;51.992;4.498;2023-12-29T09:10:42;100636.44;;;9.81;100.00
60437;BME280;46289;51.992;4.498;2023-12-29T09:12:50;100636.47;;;9.79;100.00
60437;BME280;46289;51.992;4.498;2023-12-29T09:14:58;100642.53;;;9.81;100.00
60437;BME280;46289;51.992;4.498;2023-12-29T09:17:04;100658.28;;;9.81;100.00
60437;BME280;46289;51.992;4.498;2023-12-29T09:19:10;100653.88;;;9.82;100.00
60437;BME280;46289;51.992;4.498;2023-12-29T09:21:31;100653.69;;;9.86;100.00
60437;BME280;46289;51.992;4.498;2023-12-29T09:23:39;100656.41;;;9.85;100.00
60437;BME280;46289;51.992;4.498;2023-12-29T09:25:46;100648.44;;;9.86;100.00
60437;BME280;46289;51.992;4.498;2023-12-29T09:27:52;100655.41;;;9.87;100.00
60437;BME280;46289;51.992;4.498;2023-12-29T09:29:57;100658.03;;;9.87;100.00
60437;BME280;46289;51.992;4.498;2023-12-29T09:32:06;100655.28;;;9.91;100.00
60437;BME280;46289;51.992;4.498;2023-12-29T09:34:14;100650.63;;;9.97;100.00
60437;BME280;46289;51.992;4.498;2023-12-29T09:36:22;100644.47;;;9.98;100.00
60437;BME280;46289;51.992;4.498;2023-12-29T09:38:30;100653.13;;;10.00;100.00
60437;BME280;46289;51.992;4.498;2023-12-29T09:40:39;100660.16;;;10.00;100.00
60437;BME280;46289;51.992;4.498;2023-12-29T09:42:47;100655.75;;;10.00;100.00
60437;BME280;46289;51.992;4.498;2023-12-29T09:44:53;100675.72;;;10.04;100.00
60437;BME280;46289;51.992;4.498;2023-12-29T09:47:02;100665.09;;;10.07;100.00
60437;BME280;46289;51.992;4.498;2023-12-29T09:49:08;100661.66;;;10.05;100.00
60437;BME280;46289;51.992;4.498;2023-12-29T09:51:15;100674.78;;;10.05;100.00
60437;BME280;46289;51.992;4.498;2023-12-29T09:53:25;100687.72;;;10.10;100.00
60437;BME280;46289;51.992;4.498;2023-12-29T09:55:33;100692.84;;;10.13;100.00
60437;BME280;46289;51.992;4.498;2023-12-29T09:57:43;100684.09;;;10.14;100.00
60437;BME280;46289;51.992;4.498;2023-12-29T09:59:51;100686.75;;;10.13;100.00
60437;BME280;46289;51.992;4.498;2023-12-29T10:01:56;100699.75;;;10.16;100.00
60437;BME280;46289;51.992;4.498;2023-12-29T10:04:05;100697.13;;;10.16;100.00
60437;BME280;46289;51.992;4.498;2023-12-29T10:06:16;100701.47;;;10.17;100.00
60437;BME280;46289;51.992;4.498;2023-12-29T10:08:29;100705.81;;;10.18;100.00
60437;BME280;46289;51.992;4.498;2023-12-29T10:10:34;100705.66;;;10.21;100.00
60437;BME280;46289;51.992;4.498;2023-12-29T10:12:44;100701.28;;;10.21;100.00
60437;BME280;46289;51.992;4.498;2023-12-29T10:14:59;100703.03;;;10.21;100.00
60437;BME280;46289;51.992;4.498;2023-12-29T10:17:19;100702.16;;;10.22;100.00
60437;BME280;46289;51.992;4.498;2023-12-29T10:19:32;100711.69;;;10.24;100.00
60437;BME280;46289;51.992;4.498;2023-12-29T10:21:48;100702.88;;;10.25;100.00
60437;BME280;46289;51.992;4.498;2023-12-29T10:24:01;100709.91;;;10.25;100.00
60437;BME280;46289;51.992;4.498;2023-12-29T10:26:13;100708.13;;;10.25;100.00
60437;BME280;46289;51.992;4.498;2023-12-29T10:28:22;100719.38;;;10.29;100.00
60437;BME280;46289;51.992;4.498;2023-12-29T10:30:28;100714.00;;;10.32;100.00
60437;BME280;46289;51.992;4.498;2023-12-29T10:32:36;100722.94;;;10.28;100.00
60437;BME280;46289;51.992;4.498;2023-12-29T10:34:41;100719.47;;;10.27;100.00
60437;BME280;46289;51.992;4.498;2023-12-29T10:36:51;100709.75;;;10.29;100.00
60437;BME280;46289;51.992;4.498;2023-12-29T10:39:06;100712.25;;;10.32;100.00
60437;BME280;46289;51.992;4.498;2023-12-29T10:41:12;100720.97;;;10.33;100.00
60437;BME280;46289;51.992;4.498;2023-12-29T10:43:25;100720.03;;;10.34;100.00
60437;BME280;46289;51.992;4.498;2023-12-29T10:45:33;100728.78;;;10.35;100.00
60437;BME280;46289;51.992;4.498;2023-12-29T10:47:43;100727.03;;;10.35;100.00
60437;BME280;46289;51.992;4.498;2023-12-29T10:49:58;100738.44;;;10.34;100.00
60437;BME280;46289;51.992;4.498;2023-12-29T10:52:11;100734.94;;;10.33;100.00
60437;BME280;46289;51.992;4.498;2023-12-29T10:54:20;100734.91;;;10.35;100.00
60437;BME280;46289;51.992;4.498;2023-12-29T10:56:26;100727.78;;;10.37;100.00
60437;BME280;46289;51.992;4.498;2023-12-29T10:58:36;100732.19;;;10.37;100.00
60437;BME280;46289;51.992;4.498;2023-12-29T11:00:42;100733.84;;;10.39;100.00
60437;BME280;46289;51.992;4.498;2023-12-29T11:02:54;100735.25;;;10.48;100.00